CA-0503 weather

Linden
Linden, AB, Alberta, Canada

Public forecast

Using degrees Celsius for public forecast. Weather courtesy of forecast.io.

Closest aviation weather report (METAR) to Linden

Closest report is Calgary International Airport, 35.2 nm (65.3 km) SW. Retrieved 2020/05/25 14:00 UTC (43 minutes ago):

CYYC 251400Z 18004KT 40SM OVC300 12/03 A2993 RMK CI8 SLP136 DENSITY ALT 4200FT

Closest aviation forecast (TAF) to Linden

Closest forecast is Calgary International Airport, 35.2 nm (65.3 km) SW. Retrieved 2020/05/25 15:40 UTC (0 seconds ago):

TAF CYYC 251438Z 2515/2612 VRB03KT P6SM OVC300 BECMG 2515/2517 26010KT FM251800 28012KT P6SM BKN100 BECMG 2519/2521 28015KT FM260200 28012KT P6SM BKN060 BECMG 2604/2606 32008KT FM260900 21008KT P6SM SCT060 RMK NXT FCST BY 251800Z